sensor_id;sensor_type;location;lat;lon;timestamp;pressure;altitude;pressure_sealevel;temperature;humidity
19843;BME280;10082;51.038;6.992;2023-01-31T00:01:07;88541.53;;;-144.33;100.00
19843;BME280;10082;51.038;6.992;2023-01-31T00:03:35;88743.69;;;-144.33;100.00
19843;BME280;10082;51.038;6.992;2023-01-31T00:06:15;88403.44;;;-144.33;100.00
19843;BME280;10082;51.038;6.992;2023-01-31T00:08:43;87973.22;;;-144.33;100.00
19843;BME280;10082;51.038;6.992;2023-01-31T00:11:11;87927.19;;;-144.33;100.00
19843;BME280;10082;51.038;6.992;2023-01-31T00:13:39;87404.97;;;-144.33;100.00
19843;BME280;10082;51.038;6.992;2023-01-31T00:16:07;87262.91;;;-144.33;100.00
19843;BME280;10082;51.038;6.992;2023-01-31T00:18:43;87214.91;;;-144.33;100.00
19843;BME280;10082;51.038;6.992;2023-01-31T00:21:12;87088.88;;;-144.33;100.00
19843;BME280;10082;51.038;6.992;2023-01-31T00:23:42;87360.94;;;-144.33;100.00
19843;BME280;10082;51.038;6.992;2023-01-31T00:26:11;87408.97;;;-144.33;100.00
19843;BME280;10082;51.038;6.992;2023-01-31T00:28:39;87060.84;;;-144.33;100.00
19843;BME280;10082;51.038;6.992;2023-01-31T00:31:07;87396.97;;;-144.33;100.00
19843;BME280;10082;51.038;6.992;2023-01-31T00:33:34;87426.97;;;-144.33;100.00
19843;BME280;10082;51.038;6.992;2023-01-31T00:36:04;87581.03;;;-144.33;100.00
19843;BME280;10082;51.038;6.992;2023-01-31T00:38:31;87517.00;;;-144.33;100.00
19843;BME280;10082;51.038;6.992;2023-01-31T00:41:01;87871.16;;;-144.33;100.00
19843;BME280;10082;51.038;6.992;2023-01-31T00:43:30;88217.34;;;-144.33;100.00
19843;BME280;10082;51.038;6.992;2023-01-31T00:45:57;88941.81;;;-144.33;100.00
19843;BME280;10082;51.038;6.992;2023-01-31T00:48:25;89145.97;;;-144.33;100.00
19843;BME280;10082;51.038;6.992;2023-01-31T00:50:52;89246.06;;;-144.33;100.00
19843;BME280;10082;51.038;6.992;2023-01-31T00:53:20;89822.56;;;-144.33;100.00
19843;BME280;10082;51.038;6.992;2023-01-31T00:55:48;90279.03;;;-144.33;100.00
19843;BME280;10082;51.038;6.992;2023-01-31T00:58:17;90687.50;;;-144.33;100.00
19843;BME280;10082;51.038;6.992;2023-01-31T01:00:45;91284.22;;;-144.33;100.00
19843;BME280;10082;51.038;6.992;2023-01-31T01:03:13;91190.13;;;-144.33;100.00
19843;BME280;10082;51.038;6.992;2023-01-31T01:05:40;91829.00;;;-144.33;100.00
19843;BME280;10082;51.038;6.992;2023-01-31T01:08:07;91969.19;;;-144.33;100.00
19843;BME280;10082;51.038;6.992;2023-01-31T01:10:35;92071.34;;;-144.33;100.00
19843;BME280;10082;51.038;6.992;2023-01-31T01:13:02;92229.59;;;-144.33;100.00
19843;BME280;10082;51.038;6.992;2023-01-31T01:15:32;92614.22;;;-144.33;100.00
19843;BME280;10082;51.038;6.992;2023-01-31T01:18:02;92742.41;;;-144.33;100.00
19843;BME280;10082;51.038;6.992;2023-01-31T01:20:29;93632.00;;;-144.33;100.00
19843;BME280;10082;51.038;6.992;2023-01-31T01:22:58;93613.97;;;-144.33;100.00
19843;BME280;10082;51.038;6.992;2023-01-31T01:25:25;93740.22;;;-144.33;100.00
19843;BME280;10082;51.038;6.992;2023-01-31T01:27:52;93628.00;;;-144.33;100.00
19843;BME280;10082;51.038;6.992;2023-01-31T01:30:19;94409.56;;;-144.33;100.00
19843;BME280;10082;51.038;6.992;2023-01-31T01:32:48;94319.38;;;-144.33;100.00
19843;BME280;10082;51.038;6.992;2023-01-31T01:35:15;93912.56;;;-144.33;100.00
19843;BME280;10082;51.038;6.992;2023-01-31T01:37:42;93559.88;;;-144.33;100.00
19843;BME280;10082;51.038;6.992;2023-01-31T01:40:10;93077.00;;;-144.33;100.00
19843;BME280;10082;51.038;6.992;2023-01-31T01:42:37;92690.34;;;-144.33;100.00
19843;BME280;10082;51.038;6.992;2023-01-31T01:45:10;92295.69;;;-144.33;100.00
19843;BME280;10082;51.038;6.992;2023-01-31T01:47:43;91572.63;;;-144.33;100.00
19843;BME280;10082;51.038;6.992;2023-01-31T01:50:16;91210.13;;;-144.33;100.00
19843;BME280;10082;51.038;6.992;2023-01-31T01:52:48;91061.94;;;-144.33;100.00
19843;BME280;10082;51.038;6.992;2023-01-31T01:55:21;90767.59;;;-144.33;100.00
19843;BME280;10082;51.038;6.992;2023-01-31T01:57:51;90339.09;;;-144.33;100.00
19843;BME280;10082;51.038;6.992;2023-01-31T02:00:22;90353.09;;;-144.33;100.00
19843;BME280;10082;51.038;6.992;2023-01-31T02:02:53;89446.22;;;-144.33;100.00
19843;BME280;10082;51.038;6.992;2023-01-31T02:05:27;89568.34;;;-144.33;100.00
19843;BME280;10082;51.038;6.992;2023-01-31T02:07:55;89274.06;;;-144.33;100.00
19843;BME280;10082;51.038;6.992;2023-01-31T02:10:26;89157.97;;;-144.33;100.00
19843;BME280;10082;51.038;6.992;2023-01-31T02:12:54;88753.69;;;-144.33;100.00
19843;BME280;10082;51.038;6.992;2023-01-31T02:15:21;88893.78;;;-144.33;100.00
19843;BME280;10082;51.038;6.992;2023-01-31T02:17:48;88923.81;;;-144.33;100.00
19843;BME280;10082;51.038;6.992;2023-01-31T02:20:32;88733.66;;;-144.33;100.00
19843;BME280;10082;51.038;6.992;2023-01-31T02:23:32;88713.66;;;-144.33;100.00
19843;BME280;10082;51.038;6.992;2023-01-31T02:26:49;88235.34;;;-144.33;100.00
19843;BME280;10082;51.038;6.992;2023-01-31T02:32:35;88319.41;;;-144.33;100.00
19843;BME280;10082;51.038;6.992;2023-01-31T02:35:09;87915.19;;;-144.33;100.00
19843;BME280;10082;51.038;6.992;2023-01-31T02:37:44;88187.31;;;-144.33;100.00
19843;BME280;10082;51.038;6.992;2023-01-31T02:40:20;88079.28;;;-144.33;100.00
19843;BME280;10082;51.038;6.992;2023-01-31T02:42:55;88647.59;;;-144.33;100.00
19843;BME280;10082;51.038;6.992;2023-01-31T02:45:34;89542.31;;;-144.33;100.00
19843;BME280;10082;51.038;6.992;2023-01-31T02:48:12;88587.56;;;-144.33;100.00
19843;BME280;10082;51.038;6.992;2023-01-31T02:50:57;89522.28;;;-144.33;100.00
19843;BME280;10082;51.038;6.992;2023-01-31T02:53:31;88221.34;;;-144.33;100.00
19843;BME280;10082;51.038;6.992;2023-01-31T02:56:03;87683.06;;;-144.33;100.00
19843;BME280;10082;51.038;6.992;2023-01-31T02:58:46;88147.31;;;-144.33;100.00
19843;BME280;10082;51.038;6.992;2023-01-31T03:01:20;88577.56;;;-144.33;100.00
19843;BME280;10082;51.038;6.992;2023-01-31T03:03:54;90479.25;;;-144.33;100.00
19843;BME280;10082;51.038;6.992;2023-01-31T03:09:34;89246.06;;;-144.33;100.00
19843;BME280;10082;51.038;6.992;2023-01-31T03:12:15;89284.09;;;-144.33;100.00
19843;BME280;10082;51.038;6.992;2023-01-31T03:14:46;89742.50;;;-144.33;100.00
19843;BME280;10082;51.038;6.992;2023-01-31T03:17:23;91246.19;;;-144.33;100.00
19843;BME280;10082;51.038;6.992;2023-01-31T03:20:05;90669.47;;;-144.33;100.00
19843;BME280;10082;51.038;6.992;2023-01-31T03:22:37;90387.16;;;-144.33;100.00
19843;BME280;10082;51.038;6.992;2023-01-31T03:25:07;91118.03;;;-144.33;100.00
19843;BME280;10082;51.038;6.992;2023-01-31T03:27:37;91684.78;;;-144.33;100.00
19843;BME280;10082;51.038;6.992;2023-01-31T03:30:11;90959.81;;;-144.33;100.00
19843;BME280;10082;51.038;6.992;2023-01-31T03:32:44;91212.13;;;-144.33;100.00
19843;BME280;10082;51.038;6.992;2023-01-31T03:35:14;91144.06;;;-144.33;100.00
19843;BME280;10082;51.038;6.992;2023-01-31T03:37:47;91550.59;;;-144.33;100.00
19843;BME280;10082;51.038;6.992;2023-01-31T03:40:23;91660.75;;;-144.33;100.00
19843;BME280;10082;51.038;6.992;2023-01-31T03:42:56;91788.94;;;-144.33;100.00
19843;BME280;10082;51.038;6.992;2023-01-31T03:45:28;92363.81;;;-144.33;100.00
19843;BME280;10082;51.038;6.992;2023-01-31T03:47:58;92792.50;;;-144.33;100.00
19843;BME280;10082;51.038;6.992;2023-01-31T03:50:34;93403.59;;;-144.33;100.00
19843;BME280;10082;51.038;6.992;2023-01-31T03:53:05;93668.09;;;-144.33;100.00
19843;BME280;10082;51.038;6.992;2023-01-31T03:55:37;94513.78;;;-144.33;100.00
19843;BME280;10082;51.038;6.992;2023-01-31T03:58:07;95443.88;;;-144.33;100.00
19843;BME280;10082;51.038;6.992;2023-01-31T04:00:39;96510.50;;;-144.33;100.00
19843;BME280;10082;51.038;6.992;2023-01-31T04:03:13;97579.44;;;-144.33;100.00
19843;BME280;10082;51.038;6.992;2023-01-31T04:05:43;98247.44;;;-144.33;100.00
19843;BME280;10082;51.038;6.992;2023-01-31T04:08:11;99268.66;;;-144.33;100.00
19843;BME280;10082;51.038;6.992;2023-01-31T04:10:54;100342.34;;;-144.33;100.00
19843;BME280;10082;51.038;6.992;2023-01-31T04:13:24;101305.88;;;-144.33;100.00
19843;BME280;10082;51.038;6.992;2023-01-31T04:15:51;102396.16;;;-144.33;100.00
19843;BME280;10082;51.038;6.992;2023-01-31T04:18:18;103438.53;;;-144.33;100.00
19843;BME280;10082;51.038;6.992;2023-01-31T04:20:46;104746.38;;;-144.33;100.00
19843;BME280;10082;51.038;6.992;2023-01-31T04:23:14;106219.47;;;-144.33;100.00
19843;BME280;10082;51.038;6.992;2023-01-31T04:25:43;107787.59;;;-144.33;100.00
19843;BME280;10082;51.038;6.992;2023-01-31T04:28:12;109583.66;;;-144.33;100.00
19843;BME280;10082;51.038;6.992;2023-01-31T04:30:40;110503.13;;;-144.33;100.00
19843;BME280;10082;51.038;6.992;2023-01-31T04:33:07;111465.03;;;-144.33;100.00
19843;BME280;10082;51.038;6.992;2023-01-31T04:35:33;112072.91;;;-144.33;100.00
19843;BME280;10082;51.038;6.992;2023-01-31T04:38:02;112171.53;;;-144.33;100.00
19843;BME280;10082;51.038;6.992;2023-01-31T04:40:30;112171.53;;;-144.33;100.00
19843;BME280;10082;51.038;6.992;2023-01-31T04:42:56;112171.53;;;-144.33;100.00
19843;BME280;10082;51.038;6.992;2023-01-31T04:45:23;112171.53;;;-144.33;100.00
19843;BME280;10082;51.038;6.992;2023-01-31T04:47:50;112171.53;;;-144.33;100.00
19843;BME280;10082;51.038;6.992;2023-01-31T04:50:18;112171.53;;;-144.33;100.00
19843;BME280;10082;51.038;6.992;2023-01-31T04:52:48;112171.53;;;-144.33;100.00
19843;BME280;10082;51.038;6.992;2023-01-31T04:55:17;112171.53;;;-144.33;100.00
19843;BME280;10082;51.038;6.992;2023-01-31T04:57:44;112171.53;;;-144.33;100.00
19843;BME280;10082;51.038;6.992;2023-01-31T05:00:13;112171.53;;;-144.33;100.00
19843;BME280;10082;51.038;6.992;2023-01-31T05:02:40;112171.53;;;-144.33;100.00
19843;BME280;10082;51.038;6.992;2023-01-31T05:05:08;112171.53;;;-144.33;100.00
19843;BME280;10082;51.038;6.992;2023-01-31T05:07:37;112171.53;;;-144.33;100.00
19843;BME280;10082;51.038;6.992;2023-01-31T05:10:04;112171.53;;;-144.33;100.00
19843;BME280;10082;51.038;6.992;2023-01-31T05:12:33;112171.53;;;-144.33;100.00
19843;BME280;10082;51.038;6.992;2023-01-31T05:15:00;112171.53;;;-144.33;100.00
19843;BME280;10082;51.038;6.992;2023-01-31T05:17:28;112171.53;;;-144.33;100.00
19843;BME280;10082;51.038;6.992;2023-01-31T05:19:55;112171.53;;;-144.33;100.00
19843;BME280;10082;51.038;6.992;2023-01-31T05:25:08;112171.53;;;-144.33;100.00
19843;BME280;10082;51.038;6.992;2023-01-31T05:27:37;112171.53;;;-144.33;100.00
19843;BME280;10082;51.038;6.992;2023-01-31T05:30:05;112171.53;;;-144.33;100.00
19843;BME280;10082;51.038;6.992;2023-01-31T05:32:32;112171.53;;;-144.33;100.00
19843;BME280;10082;51.038;6.992;2023-01-31T05:34:59;112171.53;;;-144.33;100.00
19843;BME280;10082;51.038;6.992;2023-01-31T05:37:27;112171.53;;;-144.33;100.00
19843;BME280;10082;51.038;6.992;2023-01-31T05:39:54;112171.53;;;-144.33;100.00
19843;BME280;10082;51.038;6.992;2023-01-31T05:42:22;112171.53;;;-144.33;100.00
19843;BME280;10082;51.038;6.992;2023-01-31T05:44:56;112171.53;;;-144.33;100.00
19843;BME280;10082;51.038;6.992;2023-01-31T05:47:24;112171.53;;;-144.33;100.00
19843;BME280;10082;51.038;6.992;2023-01-31T05:49:51;112171.53;;;-144.33;100.00
19843;BME280;10082;51.038;6.992;2023-01-31T05:52:18;112171.53;;;-144.33;100.00
19843;BME280;10082;51.038;6.992;2023-01-31T05:54:45;112171.53;;;-144.33;100.00
19843;BME280;10082;51.038;6.992;2023-01-31T05:57:12;112171.53;;;-144.33;100.00
19843;BME280;10082;51.038;6.992;2023-01-31T05:59:40;112171.53;;;-144.33;100.00
19843;BME280;10082;51.038;6.992;2023-01-31T06:02:09;112171.53;;;-144.33;100.00
19843;BME280;10082;51.038;6.992;2023-01-31T06:04:37;112171.53;;;-144.33;100.00
19843;BME280;10082;51.038;6.992;2023-01-31T06:07:03;112171.53;;;-144.33;100.00
19843;BME280;10082;51.038;6.992;2023-01-31T06:09:31;112171.53;;;-144.33;100.00
19843;BME280;10082;51.038;6.992;2023-01-31T06:11:58;112171.53;;;-144.33;100.00
19843;BME280;10082;51.038;6.992;2023-01-31T06:14:25;112171.53;;;-144.33;100.00
19843;BME280;10082;51.038;6.992;2023-01-31T06:16:52;112171.53;;;-144.33;100.00
19843;BME280;10082;51.038;6.992;2023-01-31T06:19:20;112171.53;;;-144.33;100.00
19843;BME280;10082;51.038;6.992;2023-01-31T06:21:49;112171.53;;;-144.33;100.00
19843;BME280;10082;51.038;6.992;2023-01-31T06:24:17;112171.53;;;-144.33;100.00
19843;BME280;10082;51.038;6.992;2023-01-31T06:26:44;112171.53;;;-144.33;100.00
19843;BME280;10082;51.038;6.992;2023-01-31T06:29:11;112171.53;;;-144.33;100.00
19843;BME280;10082;51.038;6.992;2023-01-31T06:31:38;112171.53;;;-144.33;100.00
19843;BME280;10082;51.038;6.992;2023-01-31T06:34:08;112171.53;;;-144.33;100.00
19843;BME280;10082;51.038;6.992;2023-01-31T06:36:38;112171.53;;;-144.33;100.00
19843;BME280;10082;51.038;6.992;2023-01-31T06:39:05;112171.53;;;-144.33;100.00
19843;BME280;10082;51.038;6.992;2023-01-31T06:41:32;112171.53;;;-144.33;100.00
19843;BME280;10082;51.038;6.992;2023-01-31T06:43:59;112171.53;;;-144.33;100.00
19843;BME280;10082;51.038;6.992;2023-01-31T06:46:26;112171.53;;;-144.33;100.00
19843;BME280;10082;51.038;6.992;2023-01-31T06:48:53;112171.53;;;-144.33;100.00
19843;BME280;10082;51.038;6.992;2023-01-31T06:51:20;112171.53;;;-144.33;100.00
19843;BME280;10082;51.038;6.992;2023-01-31T06:53:50;112171.53;;;-144.33;100.00
19843;BME280;10082;51.038;6.992;2023-01-31T06:56:17;112171.53;;;-144.33;100.00
19843;BME280;10082;51.038;6.992;2023-01-31T06:58:44;112171.53;;;-144.33;100.00
19843;BME280;10082;51.038;6.992;2023-01-31T07:01:12;112171.53;;;-144.33;100.00
19843;BME280;10082;51.038;6.992;2023-01-31T07:03:41;112171.53;;;-144.33;100.00
19843;BME280;10082;51.038;6.992;2023-01-31T07:06:08;112171.53;;;-144.33;100.00
19843;BME280;10082;51.038;6.992;2023-01-31T07:08:36;112171.53;;;-144.33;100.00
19843;BME280;10082;51.038;6.992;2023-01-31T07:11:05;112171.53;;;-144.33;100.00
19843;BME280;10082;51.038;6.992;2023-01-31T07:13:32;112171.53;;;-144.33;100.00
19843;BME280;10082;51.038;6.992;2023-01-31T07:15:59;112171.53;;;-144.33;100.00
19843;BME280;10082;51.038;6.992;2023-01-31T07:18:26;112171.53;;;-144.33;100.00
19843;BME280;10082;51.038;6.992;2023-01-31T07:20:53;112171.53;;;-144.33;100.00
19843;BME280;10082;51.038;6.992;2023-01-31T07:23:21;112171.53;;;-144.33;100.00
19843;BME280;10082;51.038;6.992;2023-01-31T07:25:48;112171.53;;;-144.33;100.00
19843;BME280;10082;51.038;6.992;2023-01-31T07:28:17;112171.53;;;-144.33;100.00
19843;BME280;10082;51.038;6.992;2023-01-31T07:30:44;112171.53;;;-144.33;100.00
19843;BME280;10082;51.038;6.992;2023-01-31T07:33:12;112171.53;;;-144.33;100.00
19843;BME280;10082;51.038;6.992;2023-01-31T07:35:40;112171.53;;;-144.33;100.00
19843;BME280;10082;51.038;6.992;2023-01-31T07:38:08;112171.53;;;-144.33;100.00
19843;BME280;10082;51.038;6.992;2023-01-31T07:40:35;112171.53;;;-144.33;100.00
19843;BME280;10082;51.038;6.992;2023-01-31T07:43:02;112171.53;;;-144.33;100.00
19843;BME280;10082;51.038;6.992;2023-01-31T07:45:30;112171.53;;;-144.33;100.00
19843;BME280;10082;51.038;6.992;2023-01-31T07:47:57;112171.53;;;-144.33;100.00
19843;BME280;10082;51.038;6.992;2023-01-31T07:50:24;112171.53;;;-144.33;100.00
19843;BME280;10082;51.038;6.992;2023-01-31T07:52:52;112171.53;;;-144.33;100.00
19843;BME280;10082;51.038;6.992;2023-01-31T07:55:20;112171.53;;;-144.33;100.00
19843;BME280;10082;51.038;6.992;2023-01-31T07:57:47;112171.53;;;-144.33;100.00
19843;BME280;10082;51.038;6.992;2023-01-31T08:00:14;112171.53;;;-144.33;100.00
19843;BME280;10082;51.038;6.992;2023-01-31T08:03:01;112171.53;;;-144.33;100.00
19843;BME280;10082;51.038;6.992;2023-01-31T08:05:45;112171.53;;;-144.33;100.00
19843;BME280;10082;51.038;6.992;2023-01-31T08:08:12;112171.53;;;-144.33;100.00
19843;BME280;10082;51.038;6.992;2023-01-31T08:10:40;112171.53;;;-144.33;100.00
19843;BME280;10082;51.038;6.992;2023-01-31T08:13:07;112171.53;;;-144.33;100.00
19843;BME280;10082;51.038;6.992;2023-01-31T08:15:36;112171.53;;;-144.33;100.00
19843;BME280;10082;51.038;6.992;2023-01-31T08:18:04;112171.53;;;-144.33;100.00
19843;BME280;10082;51.038;6.992;2023-01-31T08:20:32;112171.53;;;-144.33;100.00
19843;BME280;10082;51.038;6.992;2023-01-31T08:23:02;112171.53;;;-144.33;100.00
19843;BME280;10082;51.038;6.992;2023-01-31T08:25:29;112171.53;;;-144.33;100.00
19843;BME280;10082;51.038;6.992;2023-01-31T08:27:56;112171.53;;;-144.33;100.00
19843;BME280;10082;51.038;6.992;2023-01-31T08:30:24;112171.53;;;-144.33;100.00
19843;BME280;10082;51.038;6.992;2023-01-31T08:32:51;112171.53;;;-144.33;100.00
19843;BME280;10082;51.038;6.992;2023-01-31T08:35:20;112171.53;;;-144.33;100.00
19843;BME280;10082;51.038;6.992;2023-01-31T08:37:48;112171.53;;;-144.33;100.00
19843;BME280;10082;51.038;6.992;2023-01-31T08:40:15;112171.53;;;-144.33;100.00
19843;BME280;10082;51.038;6.992;2023-01-31T08:42:42;112171.53;;;-144.33;100.00
19843;BME280;10082;51.038;6.992;2023-01-31T08:45:09;112171.53;;;-144.33;100.00
19843;BME280;10082;51.038;6.992;2023-01-31T08:47:36;112171.53;;;-144.33;100.00
19843;BME280;10082;51.038;6.992;2023-01-31T08:50:05;112171.53;;;-144.33;100.00
19843;BME280;10082;51.038;6.992;2023-01-31T08:52:34;112171.53;;;-144.33;100.00
19843;BME280;10082;51.038;6.992;2023-01-31T08:55:02;112171.53;;;-144.33;100.00
19843;BME280;10082;51.038;6.992;2023-01-31T08:57:30;112171.53;;;-144.33;100.00
19843;BME280;10082;51.038;6.992;2023-01-31T09:00:10;112171.53;;;-144.33;100.00
19843;BME280;10082;51.038;6.992;2023-01-31T09:02:37;112171.53;;;-144.33;100.00
19843;BME280;10082;51.038;6.992;2023-01-31T09:05:05;112171.53;;;-144.33;100.00
19843;BME280;10082;51.038;6.992;2023-01-31T09:07:34;112171.53;;;-144.33;100.00
19843;BME280;10082;51.038;6.992;2023-01-31T09:10:02;112171.53;;;-144.33;100.00
19843;BME280;10082;51.038;6.992;2023-01-31T09:12:30;112171.53;;;-144.33;100.00
19843;BME280;10082;51.038;6.992;2023-01-31T09:14:57;112171.53;;;-144.33;100.00
19843;BME280;10082;51.038;6.992;2023-01-31T09:17:24;112171.53;;;-144.33;100.00
19843;BME280;10082;51.038;6.992;2023-01-31T09:19:51;112171.53;;;-144.33;100.00
19843;BME280;10082;51.038;6.992;2023-01-31T09:22:18;112171.53;;;-144.33;100.00
19843;BME280;10082;51.038;6.992;2023-01-31T09:24:46;112171.53;;;-144.33;100.00
19843;BME280;10082;51.038;6.992;2023-01-31T09:27:14;112171.53;;;-144.33;100.00
19843;BME280;10082;51.038;6.992;2023-01-31T09:29:51;112171.53;;;-144.33;100.00
19843;BME280;10082;51.038;6.992;2023-01-31T09:32:17;112171.53;;;-144.33;100.00
19843;BME280;10082;51.038;6.992;2023-01-31T09:34:45;112171.53;;;-144.33;100.00
19843;BME280;10082;51.038;6.992;2023-01-31T09:37:13;112171.53;;;-144.33;100.00
19843;BME280;10082;51.038;6.992;2023-01-31T09:39:40;112171.53;;;-144.33;100.00
19843;BME280;10082;51.038;6.992;2023-01-31T09:42:17;112171.53;;;-144.33;100.00
19843;BME280;10082;51.038;6.992;2023-01-31T09:44:53;112171.53;;;-144.33;100.00
19843;BME280;10082;51.038;6.992;2023-01-31T09:47:24;112171.53;;;-144.33;100.00
19843;BME280;10082;51.038;6.992;2023-01-31T09:49:57;112171.53;;;-144.33;100.00
19843;BME280;10082;51.038;6.992;2023-01-31T09:52:26;112171.53;;;-144.33;100.00
19843;BME280;10082;51.038;6.992;2023-01-31T09:54:54;112171.53;;;-144.33;100.00
19843;BME280;10082;51.038;6.992;2023-01-31T09:57:30;112171.53;;;-144.33;100.00
19843;BME280;10082;51.038;6.992;2023-01-31T10:00:09;112171.53;;;-144.33;100.00
19843;BME280;10082;51.038;6.992;2023-01-31T10:02:57;112171.53;;;-144.33;100.00
19843;BME280;10082;51.038;6.992;2023-01-31T10:05:35;112171.53;;;-144.33;100.00
19843;BME280;10082;51.038;6.992;2023-01-31T10:08:10;112171.53;;;-144.33;100.00
19843;BME280;10082;51.038;6.992;2023-01-31T10:10:44;112171.53;;;-144.33;100.00
19843;BME280;10082;51.038;6.992;2023-01-31T10:13:20;112171.53;;;-144.33;100.00
19843;BME280;10082;51.038;6.992;2023-01-31T10:15:51;112171.53;;;-144.33;100.00
19843;BME280;10082;51.038;6.992;2023-01-31T10:18:25;112171.53;;;-144.33;100.00
19843;BME280;10082;51.038;6.992;2023-01-31T10:20:57;112171.53;;;-144.33;100.00
19843;BME280;10082;51.038;6.992;2023-01-31T10:23:28;112171.53;;;-144.33;100.00
19843;BME280;10082;51.038;6.992;2023-01-31T10:25:59;112171.53;;;-144.33;100.00
19843;BME280;10082;51.038;6.992;2023-01-31T10:28:35;112171.53;;;-144.33;100.00
19843;BME280;10082;51.038;6.992;2023-01-31T10:31:10;112171.53;;;-144.33;100.00
19843;BME280;10082;51.038;6.992;2023-01-31T10:33:46;112171.53;;;-144.33;100.00
19843;BME280;10082;51.038;6.992;2023-01-31T10:36:21;112171.53;;;-144.33;100.00
19843;BME280;10082;51.038;6.992;2023-01-31T10:39:00;112171.53;;;-144.33;100.00
19843;BME280;10082;51.038;6.992;2023-01-31T10:41:40;112171.53;;;-144.33;100.00
19843;BME280;10082;51.038;6.992;2023-01-31T10:44:19;112171.53;;;-144.33;100.00
19843;BME280;10082;51.038;6.992;2023-01-31T10:46:47;112171.53;;;-144.33;100.00
19843;BME280;10082;51.038;6.992;2023-01-31T10:49:23;112171.53;;;-144.33;100.00
19843;BME280;10082;51.038;6.992;2023-01-31T10:52:02;112171.53;;;-144.33;100.00
19843;BME280;10082;51.038;6.992;2023-01-31T10:54:45;112171.53;;;-144.33;100.00
19843;BME280;10082;51.038;6.992;2023-01-31T10:57:15;112171.53;;;-144.33;100.00
19843;BME280;10082;51.038;6.992;2023-01-31T10:59:46;112171.53;;;-144.33;100.00
19843;BME280;10082;51.038;6.992;2023-01-31T11:02:18;112171.53;;;-144.33;100.00
19843;BME280;10082;51.038;6.992;2023-01-31T11:04:48;112171.53;;;-144.33;100.00
19843;BME280;10082;51.038;6.992;2023-01-31T11:07:15;112171.53;;;-144.33;100.00
19843;BME280;10082;51.038;6.992;2023-01-31T11:09:48;112171.53;;;-144.33;100.00
19843;BME280;10082;51.038;6.992;2023-01-31T11:12:17;112171.53;;;-144.33;100.00
19843;BME280;10082;51.038;6.992;2023-01-31T11:15:03;112171.53;;;-144.33;100.00
19843;BME280;10082;51.038;6.992;2023-01-31T11:17:32;112171.53;;;-144.33;100.00
19843;BME280;10082;51.038;6.992;2023-01-31T11:20:03;112171.53;;;-144.33;100.00
19843;BME280;10082;51.038;6.992;2023-01-31T11:22:32;112171.53;;;-144.33;100.00
19843;BME280;10082;51.038;6.992;2023-01-31T11:25:03;112171.53;;;-144.33;100.00
19843;BME280;10082;51.038;6.992;2023-01-31T11:27:36;112018.56;;;-144.33;100.00
19843;BME280;10082;51.038;6.992;2023-01-31T11:30:06;109975.97;;;-144.33;100.00
19843;BME280;10082;51.038;6.992;2023-01-31T11:32:44;110346.19;;;-144.33;100.00
19843;BME280;10082;51.038;6.992;2023-01-31T11:35:22;109744.59;;;-144.33;100.00
19843;BME280;10082;51.038;6.992;2023-01-31T11:37:52;110026.28;;;-144.33;100.00
19843;BME280;10082;51.038;6.992;2023-01-31T11:40:20;110146.97;;;-144.33;100.00
19843;BME280;10082;51.038;6.992;2023-01-31T11:42:59;109859.28;;;-144.33;100.00
19843;BME280;10082;51.038;6.992;2023-01-31T11:45:29;110088.63;;;-144.33;100.00
19843;BME280;10082;51.038;6.992;2023-01-31T11:47:58;110072.53;;;-144.33;100.00
19843;BME280;10082;51.038;6.992;2023-01-31T11:50:37;109762.72;;;-144.33;100.00
19843;BME280;10082;51.038;6.992;2023-01-31T11:53:15;109986.03;;;-144.33;100.00
19843;BME280;10082;51.038;6.992;2023-01-31T11:55:43;110217.41;;;-144.33;100.00
19843;BME280;10082;51.038;6.992;2023-01-31T11:58:16;110454.84;;;-144.33;100.00
19843;BME280;10082;51.038;6.992;2023-01-31T12:00:52;110277.75;;;-144.33;100.00
19843;BME280;10082;51.038;6.992;2023-01-31T12:03:26;110144.97;;;-144.33;100.00
19843;BME280;10082;51.038;6.992;2023-01-31T12:06:02;109772.78;;;-144.33;100.00
19843;BME280;10082;51.038;6.992;2023-01-31T12:08:31;109843.19;;;-144.33;100.00
19843;BME280;10082;51.038;6.992;2023-01-31T12:11:03;109567.56;;;-144.33;100.00
19843;BME280;10082;51.038;6.992;2023-01-31T12:13:30;109368.41;;;-144.33;100.00
19843;BME280;10082;51.038;6.992;2023-01-31T12:16:01;109557.50;;;-144.33;100.00
19843;BME280;10082;51.038;6.992;2023-01-31T12:18:47;109714.44;;;-144.33;100.00
19843;BME280;10082;51.038;6.992;2023-01-31T12:21:31;109388.53;;;-144.33;100.00
19843;BME280;10082;51.038;6.992;2023-01-31T12:27:35;109119.00;;;-144.33;100.00
19843;BME280;10082;51.038;6.992;2023-01-31T12:30:23;108254.16;;;-144.33;100.00
19843;BME280;10082;51.038;6.992;2023-01-31T12:33:08;108791.13;;;-144.33;100.00
19843;BME280;10082;51.038;6.992;2023-01-31T12:35:47;108801.19;;;-144.33;100.00
19843;BME280;10082;51.038;6.992;2023-01-31T12:38:40;108286.31;;;-144.33;100.00
19843;BME280;10082;51.038;6.992;2023-01-31T12:41:19;108628.22;;;-144.33;100.00
19843;BME280;10082;51.038;6.992;2023-01-31T12:44:03;109473.03;;;-144.33;100.00
19843;BME280;10082;51.038;6.992;2023-01-31T12:46:41;109458.94;;;-144.33;100.00
19843;BME280;10082;51.038;6.992;2023-01-31T12:49:28;110897.53;;;-144.33;100.00
19843;BME280;10082;51.038;6.992;2023-01-31T12:52:10;110990.09;;;-144.33;100.00
19843;BME280;10082;51.038;6.992;2023-01-31T12:54:53;110615.81;;;-144.33;100.00